Time;durP1;ratioP1;P1;durP2;ratioP2;P2;SDS_P1;SDS_P2;PMS_P1;PMS_P2;Temp;Humidity;BMP_temperature;BMP_pressure;BME280_temperature;BME280_humidity;BME280_pressure;Samples;Min_cycle;Max_cycle;Signal;HPM_P1;HPM_P2
2022/05/22 00:02:11;;;;;;;6.85;3.72;;;;;;;11.09;100.00;102012.94;5009355;28;20061;-35
2022/05/22 00:04:40;;;;;;;5.93;2.53;;;;;;;11.05;100.00;102007.88;5011763;28;20056;-28
2022/05/22 00:07:08;;;;;;;5.65;2.95;;;;;;;11.04;100.00;102002.56;5012060;28;20042;-32
2022/05/22 00:09:37;;;;;;;7.70;2.88;;;;;;;11.02;100.00;101988.03;5007890;28;20046;-29
2022/05/22 00:12:07;;;;;;;7.75;3.30;;;;;;;11.00;100.00;101993.06;5010346;28;20042;-35
2022/05/22 00:14:35;;;;;;;6.32;3.10;;;;;;;10.97;100.00;101988.88;5011826;28;20041;-34
2022/05/22 00:17:06;;;;;;;7.68;3.50;;;;;;;10.95;100.00;101985.53;5011078;28;20061;-32
2022/05/22 00:19:34;;;;;;;4.55;2.22;;;;;;;10.92;100.00;101983.28;5011948;28;20454;-29
2022/05/22 00:22:05;;;;;;;8.68;2.85;;;;;;;10.91;100.00;101973.22;5011756;28;20046;-27
2022/05/22 00:24:33;;;;;;;6.03;3.20;;;;;;;10.89;100.00;101971.81;5011005;28;20054;-32
2022/05/22 00:27:02;;;;;;;6.63;4.35;;;;;;;10.86;100.00;101967.63;5011667;28;20426;-29
2022/05/22 00:29:34;;;;;;;6.60;3.25;;;;;;;10.83;100.00;101968.16;5010364;28;20053;-27
2022/05/22 00:32:02;;;;;;;10.90;5.13;;;;;;;10.80;100.00;101968.69;5010637;28;20050;-30
2022/05/22 00:34:30;;;;;;;7.60;3.90;;;;;;;10.79;100.00;101977.38;5010960;28;20046;-33
2022/05/22 00:36:58;;;;;;;5.80;3.45;;;;;;;10.74;100.00;101969.81;5011135;28;20046;-30
2022/05/22 00:39:27;;;;;;;6.32;3.17;;;;;;;10.73;100.00;101982.09;5011271;28;20050;-28
2022/05/22 00:41:56;;;;;;;6.40;3.33;;;;;;;10.70;100.00;101969.50;5011395;28;20046;-31
2022/05/22 00:44:24;;;;;;;4.72;2.75;;;;;;;10.67;100.00;101974.78;5008979;28;20499;-29
2022/05/22 00:46:54;;;;;;;6.95;3.42;;;;;;;10.63;100.00;101968.06;5011426;28;20124;-35
2022/05/22 00:49:27;;;;;;;5.47;3.20;;;;;;;10.61;100.00;101973.94;5011173;28;20056;-34
2022/05/22 00:52:01;;;;;;;6.63;2.85;;;;;;;10.58;100.00;101970.88;5010521;28;20065;-30
2022/05/22 00:54:40;;;;;;;9.73;4.85;;;;;;;10.54;100.00;101976.16;5011095;28;20058;-29
2022/05/22 00:57:12;;;;;;;7.97;4.18;;;;;;;10.52;100.00;101972.78;5009916;28;20076;-34
2022/05/22 00:59:44;;;;;;;6.97;3.00;;;;;;;10.49;100.00;101976.13;5010497;28;20042;-34
2022/05/22 01:02:13;;;;;;;10.65;4.22;;;;;;;10.46;100.00;101975.81;5011150;28;20446;-33
2022/05/22 01:04:44;;;;;;;4.93;2.65;;;;;;;10.45;100.00;101971.34;5010957;28;20129;-28
2022/05/22 01:07:13;;;;;;;5.32;2.70;;;;;;;10.44;100.00;101969.66;5010194;28;20034;-32
2022/05/22 01:09:42;;;;;;;5.55;2.95;;;;;;;10.41;100.00;101964.63;5011103;28;20165;-28
2022/05/22 01:12:14;;;;;;;5.82;3.08;;;;;;;10.41;100.00;101970.19;5010297;28;20149;-26
2022/05/22 01:14:47;;;;;;;7.35;3.70;;;;;;;10.38;100.00;101977.19;5015330;28;20145;-32
2022/05/22 01:17:16;;;;;;;7.10;3.25;;;;;;;10.37;100.00;101966.28;5010648;28;20085;-33
2022/05/22 01:19:55;;;;;;;4.60;2.60;;;;;;;10.37;100.00;101964.34;5009708;28;20695;-34
2022/05/22 01:22:26;;;;;;;5.30;3.10;;;;;;;10.34;100.00;101957.34;5009687;28;20140;-30
2022/05/22 01:24:55;;;;;;;6.13;2.90;;;;;;;10.33;100.00;101952.03;5009645;28;20093;-27
2022/05/22 01:27:24;;;;;;;4.97;2.38;;;;;;;10.32;100.00;101944.78;5010079;28;20049;-28
2022/05/22 01:30:06;;;;;;;5.60;2.47;;;;;;;10.31;100.00;101938.34;5010997;28;20069;-30
2022/05/22 01:32:36;;;;;;;4.60;2.42;;;;;;;10.29;100.00;101939.72;5010917;28;20061;-34
2022/05/22 01:35:08;;;;;;;3.92;2.15;;;;;;;10.28;100.00;101938.06;5008765;28;20387;-29
2022/05/22 01:37:37;;;;;;;3.30;2.30;;;;;;;10.26;100.00;101935.53;5009471;28;20494;-33
2022/05/22 01:40:10;;;;;;;6.72;3.25;;;;;;;10.26;100.00;101940.28;5006087;28;20077;-38
2022/05/22 01:42:40;;;;;;;3.75;2.00;;;;;;;10.24;100.00;101934.97;5008505;28;20042;-28
2022/05/22 01:45:11;;;;;;;7.13;3.55;;;;;;;10.24;100.00;101934.13;5011382;28;20044;-27
2022/05/22 01:47:39;;;;;;;8.35;3.25;;;;;;;10.23;100.00;101929.66;5012337;28;20093;-34
2022/05/22 01:50:09;;;;;;;6.63;3.58;;;;;;;10.21;100.00;101932.72;5013188;28;20053;-32
2022/05/22 01:52:39;;;;;;;6.00;2.97;;;;;;;10.20;100.00;101919.88;5013189;28;20058;-32
2022/05/22 01:55:10;;;;;;;7.13;3.10;;;;;;;10.19;100.00;101920.16;5012169;28;20062;-34
2022/05/22 01:57:41;;;;;;;7.97;3.63;;;;;;;10.18;100.00;101921.25;5013282;28;20285;-31
2022/05/22 02:00:14;;;;;;;7.25;3.33;;;;;;;10.17;100.00;101922.34;5013094;28;20141;-30
2022/05/22 02:02:42;;;;;;;6.50;2.60;;;;;;;10.17;100.00;101911.19;5013695;28;20116;-30
2022/05/22 02:05:18;;;;;;;8.48;3.75;;;;;;;10.15;100.00;101921.78;5009349;28;20392;-31
2022/05/22 02:10:36;;;;;;;6.28;2.78;;;;;;;10.12;100.00;101922.31;5009623;28;20049;-28
2022/05/22 02:13:08;;;;;;;7.60;3.60;;;;;;;10.11;100.00;101917.84;5012887;28;20172;-34
2022/05/22 02:15:38;;;;;;;6.13;3.10;;;;;;;10.11;100.00;101917.84;5011727;28;20104;-28
2022/05/22 02:18:06;;;;;;;7.10;3.50;;;;;;;10.10;100.00;101916.16;5012665;28;20061;-31
2022/05/22 02:20:34;;;;;;;10.07;4.38;;;;;;;10.10;100.00;101918.97;5014137;28;20061;-34
2022/05/22 02:23:03;;;;;;;7.25;3.90;;;;;;;10.12;100.00;101912.00;5011669;28;20045;-28
2022/05/22 02:25:35;;;;;;;9.98;3.65;;;;;;;10.12;100.00;101902.78;5013743;28;20112;-35
2022/05/22 02:28:10;;;;;;;8.65;4.03;;;;;;;10.11;100.00;101904.75;5012490;28;20483;-30
2022/05/22 02:30:41;;;;;;;6.88;3.70;;;;;;;10.13;100.00;101907.25;5011627;28;20137;-26
2022/05/22 02:33:10;;;;;;;11.40;4.78;;;;;;;10.16;100.00;101898.38;5012317;28;20050;-29
2022/05/22 02:35:44;;;;;;;7.80;3.63;;;;;;;10.15;100.00;101900.31;5012411;28;20053;-26
2022/05/22 02:38:20;;;;;;;5.85;3.20;;;;;;;10.13;100.00;101898.91;5011565;28;20058;-31
2022/05/22 02:40:50;;;;;;;6.75;3.13;;;;;;;10.11;100.00;101893.59;5012118;28;20084;-32
2022/05/22 02:43:18;;;;;;;8.60;4.10;;;;;;;10.09;100.00;101892.19;5013639;28;20290;-28
2022/05/22 02:45:52;;;;;;;6.68;3.33;;;;;;;10.08;100.00;101888.56;5011608;28;20407;-29
2022/05/22 02:48:20;;;;;;;5.95;3.40;;;;;;;10.07;100.00;101880.44;5012111;28;20116;-23
2022/05/22 02:50:59;;;;;;;9.20;4.18;;;;;;;10.07;100.00;101872.94;5011261;28;20521;-31
2022/05/22 02:53:28;;;;;;;9.15;4.57;;;;;;;10.07;100.00;101870.13;5011860;28;20054;-35
2022/05/22 02:56:27;;;;;;;10.48;5.15;;;;;;;10.08;100.00;101865.41;4999171;28;20065;-35
2022/05/22 02:59:27;;;;;;;8.82;3.97;;;;;;;10.07;100.00;101863.72;5012189;28;20096;-27
2022/05/22 03:02:10;;;;;;;11.45;5.28;;;;;;;10.06;100.00;101868.47;5008108;28;20038;-30
2022/05/22 03:04:38;;;;;;;8.60;4.68;;;;;;;10.05;100.00;101871.50;5011598;28;20054;-29
2022/05/22 03:07:10;;;;;;;11.73;5.05;;;;;;;10.05;100.00;101863.16;5011845;28;20058;-30
2022/05/22 03:09:41;;;;;;;8.70;4.38;;;;;;;10.02;100.00;101864.53;5011708;28;20138;-30
2022/05/22 03:12:10;;;;;;;7.35;4.05;;;;;;;10.00;100.00;101875.09;5012235;28;20479;-27
2022/05/22 03:14:43;;;;;;;8.90;4.53;;;;;;;9.99;100.00;101876.25;5012873;28;20052;-35
2022/05/22 03:17:11;;;;;;;11.13;5.25;;;;;;;9.98;100.00;101869.84;5012446;28;20057;-28
2022/05/22 03:19:59;;;;;;;8.98;5.03;;;;;;;9.99;100.00;101874.25;5011497;28;20537;-33
2022/05/22 03:22:28;;;;;;;10.80;5.32;;;;;;;10.01;100.00;101869.25;5027432;28;20060;-28
2022/05/22 03:25:01;;;;;;;11.70;6.20;;;;;;;10.02;100.00;101868.16;5010864;28;20050;-34
2022/05/22 03:27:30;;;;;;;12.93;5.97;;;;;;;10.04;100.00;101870.69;5009991;28;20049;-32
2022/05/22 03:29:58;;;;;;;9.70;4.80;;;;;;;10.05;100.00;101871.50;5010948;28;20420;-25
2022/05/22 03:32:26;;;;;;;6.47;3.50;;;;;;;10.03;100.00;101869.84;5012161;28;20404;-33
2022/05/22 03:34:56;;;;;;;5.22;3.00;;;;;;;10.03;100.00;101863.41;5009766;28;20046;-29
2022/05/22 03:37:25;;;;;;;10.48;4.68;;;;;;;10.02;100.00;101862.56;5010533;28;20561;-25
2022/05/22 03:39:57;;;;;;;8.75;4.57;;;;;;;9.99;100.00;101863.13;5009971;28;20095;-32
2022/05/22 03:42:26;;;;;;;9.43;4.68;;;;;;;9.97;100.00;101854.22;5011869;28;20042;-30
2022/05/22 03:44:54;;;;;;;9.93;4.78;;;;;;;9.95;100.00;101864.78;5009918;28;20484;-25
2022/05/22 03:47:23;;;;;;;7.07;4.30;;;;;;;9.94;100.00;101865.91;5008211;28;20061;-35
2022/05/22 03:50:13;;;;;;;8.88;4.53;;;;;;;9.92;100.00;101861.69;5002327;28;20096;-33
2022/05/22 03:52:44;;;;;;;9.52;4.53;;;;;;;9.91;100.00;101860.84;5009968;28;20046;-33
2022/05/22 03:55:28;;;;;;;7.07;3.88;;;;;;;9.89;100.00;101862.22;5009457;28;20045;-28
2022/05/22 03:57:59;;;;;;;9.25;4.78;;;;;;;9.90;100.00;101847.19;5009856;28;20466;-38
2022/05/22 04:00:29;;;;;;;9.13;5.38;;;;;;;9.90;100.00;101844.41;5010375;28;20076;-30
2022/05/22 04:03:03;;;;;;;10.15;5.90;;;;;;;9.89;100.00;101845.50;5010129;28;20080;-33
2022/05/22 04:05:31;;;;;;;13.20;6.43;;;;;;;9.90;100.00;101848.03;5010821;28;20057;-28
2022/05/22 04:08:01;;;;;;;13.68;6.22;;;;;;;9.89;100.00;101846.34;4998584;28;20045;-31
2022/05/22 04:10:37;;;;;;;11.15;5.60;;;;;;;9.91;100.00;101843.28;5009828;28;20045;-28
2022/05/22 04:13:06;;;;;;;10.32;5.00;;;;;;;9.93;100.00;101850.28;5010557;28;20050;-30
2022/05/22 04:15:34;;;;;;;11.63;5.35;;;;;;;9.93;100.00;101836.34;5009480;28;20120;-24
2022/05/22 04:18:04;;;;;;;14.60;7.20;;;;;;;9.95;100.00;101834.13;5010326;28;20152;-27
2022/05/22 04:20:33;;;;;;;11.65;6.53;;;;;;;9.96;100.00;101835.78;5010244;28;20054;-34
2022/05/22 04:26:09;;;;;;;10.32;5.45;;;;;;;9.98;100.00;101836.38;5010544;28;20104;-25
2022/05/22 04:28:39;;;;;;;10.38;5.50;;;;;;;10.00;100.00;101836.91;5010100;28;20129;-26
2022/05/22 04:31:13;;;;;;;15.30;6.53;;;;;;;10.02;100.00;101831.06;5009618;28;20125;-27
2022/05/22 04:34:01;;;;;;;11.30;5.82;;;;;;;10.03;100.00;101833.59;5002127;28;20574;-24
2022/05/22 04:36:29;;;;;;;12.40;6.50;;;;;;;10.07;100.00;101845.03;5008844;28;20495;-30
2022/05/22 04:38:57;;;;;;;9.65;5.72;;;;;;;10.10;100.00;101849.22;5010346;28;20061;-30
2022/05/22 04:41:25;;;;;;;12.98;6.05;;;;;;;10.13;100.00;101838.38;5009759;28;20504;-30
2022/05/22 04:43:54;;;;;;;14.10;6.28;;;;;;;10.16;100.00;101839.78;5009004;28;20046;-31
2022/05/22 04:46:22;;;;;;;15.13;7.10;;;;;;;10.19;100.00;101840.09;5009694;28;20053;-29
2022/05/22 04:48:52;;;;;;;15.55;7.53;;;;;;;10.24;100.00;101847.66;5009357;28;20050;-26
2022/05/22 04:51:20;;;;;;;13.15;6.47;;;;;;;10.28;100.00;101846.00;5009032;28;20503;-26
2022/05/22 04:53:51;;;;;;;14.20;7.57;;;;;;;10.32;100.00;101844.34;5009712;28;20049;-30
2022/05/22 04:56:46;;;;;;;13.23;6.80;;;;;;;10.36;100.00;101839.91;5007060;28;20297;-33
2022/05/22 04:59:22;;;;;;;11.68;6.38;;;;;;;10.43;100.00;101848.00;5007944;28;20053;-30
2022/05/22 05:01:50;;;;;;;17.48;6.43;;;;;;;10.47;100.00;101844.38;5005841;28;20046;-29
2022/05/22 05:04:24;;;;;;;14.80;6.57;;;;;;;10.51;100.00;101837.16;5007750;28;20050;-34
2022/05/22 05:07:06;;;;;;;17.05;7.22;;;;;;;10.56;100.00;101839.97;5008641;28;20086;-31
2022/05/22 05:09:52;;;;;;;17.08;7.85;;;;;;;10.60;100.00;101845.81;5008528;28;20750;-29
2022/05/22 05:12:42;;;;;;;20.73;8.43;;;;;;;10.64;100.00;101858.09;4998383;28;20053;-34
2022/05/22 05:15:24;;;;;;;15.15;7.45;;;;;;;10.70;100.00;101862.59;4998917;28;20453;-30
2022/05/22 05:18:15;;;;;;;16.88;8.07;;;;;;;10.75;100.00;101856.19;4997613;28;20060;-33
2022/05/22 05:20:47;;;;;;;16.73;8.80;;;;;;;10.83;100.00;101850.03;5007186;28;20069;-29
2022/05/22 05:23:17;;;;;;;11.88;7.47;;;;;;;10.87;100.00;101851.19;5008240;28;20038;-31
2022/05/22 05:25:48;;;;;;;14.98;6.18;;;;;;;10.95;100.00;101850.63;5008026;28;20077;-29
2022/05/22 05:28:16;;;;;;;16.05;7.65;;;;;;;11.01;100.00;101847.56;5008306;28;20042;-32
2022/05/22 05:30:46;;;;;;;20.55;8.60;;;;;;;11.09;100.00;101848.13;4997533;28;20132;-27
2022/05/22 05:33:13;;;;;;;19.15;8.27;;;;;;;11.16;100.00;101843.94;5007005;28;20149;-26
2022/05/22 05:36:00;;;;;;;20.23;8.95;;;;;;;11.24;100.00;101848.13;4999651;28;20053;-30
2022/05/22 05:38:48;;;;;;;18.85;8.95;;;;;;;11.33;100.00;101849.25;5000919;28;20046;-30
2022/05/22 05:41:55;;;;;;;19.38;8.70;;;;;;;11.42;100.00;101843.91;5008607;28;20072;-25
2022/05/22 05:44:28;;;;;;;18.60;8.32;;;;;;;11.50;100.00;101846.16;5007945;28;20058;-30
2022/05/22 05:47:02;;;;;;;15.63;7.47;;;;;;;11.57;100.00;101843.91;5007453;28;20475;-34
2022/05/22 05:49:41;;;;;;;15.77;7.55;;;;;;;11.63;100.00;101848.38;5008001;28;20054;-34
2022/05/22 05:52:26;;;;;;;14.45;6.70;;;;;;;11.70;100.00;101851.72;5007978;28;20332;-32
2022/05/22 05:55:10;;;;;;;16.58;7.38;;;;;;;11.74;100.00;101850.03;5007351;28;20108;-30
2022/05/22 05:58:10;;;;;;;17.35;8.38;;;;;;;11.79;100.00;101852.84;5006326;28;20132;-32
2022/05/22 06:01:12;;;;;;;16.10;7.93;;;;;;;11.87;100.00;101843.88;5007486;28;20054;-28
2022/05/22 06:03:42;;;;;;;16.55;8.82;;;;;;;11.94;100.00;101849.19;5008177;28;20440;-31
2022/05/22 06:06:11;;;;;;;12.95;6.53;;;;;;;12.01;100.00;101849.69;5007952;28;20054;-29
2022/05/22 06:08:41;;;;;;;12.88;6.38;;;;;;;12.03;100.00;101851.09;4997705;28;20076;-39
2022/05/22 06:11:28;;;;;;;10.27;5.25;;;;;;;12.12;100.00;101845.75;5008306;28;20404;-32
2022/05/22 06:13:59;;;;;;;12.32;5.70;;;;;;;12.22;100.00;101856.06;5008856;28;20065;-31
2022/05/22 06:16:27;;;;;;;12.88;5.38;;;;;;;12.31;100.00;101843.16;5007725;28;20377;-24
2022/05/22 06:19:03;;;;;;;13.25;5.28;;;;;;;12.41;100.00;101835.53;5008772;28;20104;-36
2022/05/22 06:21:32;;;;;;;12.13;5.32;;;;;;;12.55;100.00;101832.97;5008686;28;20189;-31
2022/05/22 06:24:01;;;;;;;11.95;5.03;;;;;;;12.69;100.00;101833.16;5008434;28;20484;-36
2022/05/22 06:26:49;;;;;;;14.00;5.60;;;;;;;12.86;100.00;101836.38;5010226;28;20057;-27
2022/05/22 06:29:40;;;;;;;11.52;4.63;;;;;;;13.13;100.00;101835.91;5007069;28;20108;-32
2022/05/22 06:32:22;;;;;;;10.02;4.45;;;;;;;13.53;100.00;101836.72;5006730;28;20046;-29
2022/05/22 06:35:14;;;;;;;10.32;4.05;;;;;;;14.08;100.00;101838.91;5005561;28;20053;-30
2022/05/22 06:38:05;;;;;;;13.75;4.55;;;;;;;14.71;100.00;101841.47;5002661;28;20061;-27
2022/05/22 06:41:11;;;;;;;10.43;3.60;;;;;;;15.26;100.00;101830.47;4997179;28;20108;-30
2022/05/22 06:44:05;;;;;;;9.27;3.95;;;;;;;15.79;100.00;101828.13;5010653;28;20049;-30
2022/05/22 06:47:06;;;;;;;9.13;3.53;;;;;;;16.19;100.00;101836.91;5008471;28;20057;-31
2022/05/22 06:50:09;;;;;;;9.57;3.53;;;;;;;16.65;100.00;101831.16;4982394;28;20073;-33
2022/05/22 06:52:49;;;;;;;8.43;3.20;;;;;;;17.21;100.00;101829.81;5011806;28;20054;-32
2022/05/22 06:55:42;;;;;;;8.43;3.38;;;;;;;17.53;100.00;101825.91;5005784;28;20135;-34
2022/05/22 06:58:39;;;;;;;7.93;3.08;;;;;;;17.94;100.00;101820.00;5009545;28;20061;-30
2022/05/22 07:01:14;;;;;;;9.63;2.88;;;;;;;18.48;100.00;101831.97;5012902;28;20587;-36
2022/05/22 07:04:01;;;;;;;8.38;2.85;;;;;;;18.92;100.00;101831.72;5001648;28;20095;-34
2022/05/22 07:06:35;;;;;;;6.40;2.78;;;;;;;19.18;100.00;101834.53;5012782;28;20128;-33
2022/05/22 07:09:12;;;;;;;8.10;2.50;;;;;;;19.74;100.00;101831.81;5013144;28;20124;-30
2022/05/22 07:11:59;;;;;;;8.45;2.80;;;;;;;20.19;93.89;101818.78;5012383;28;20056;-29
2022/05/22 07:14:48;;;;;;;6.30;2.50;;;;;;;20.86;93.02;101817.06;5012298;28;20443;-26
2022/05/22 07:17:21;;;;;;;9.73;2.88;;;;;;;21.18;85.20;101819.09;5012619;28;20049;-36
2022/05/22 07:20:16;;;;;;;8.07;2.53;;;;;;;21.25;84.26;101824.25;5010668;28;20152;-36
2022/05/22 07:23:02;;;;;;;6.35;2.35;;;;;;;21.18;81.17;101830.47;5012536;28;20048;-30
2022/05/22 07:26:00;;;;;;;5.55;2.00;;;;;;;21.46;83.25;101824.22;5005290;28;20056;-35
2022/05/22 07:28:48;;;;;;;5.30;1.70;;;;;;;22.14;81.10;101828.31;4987645;28;20062;-30
2022/05/22 07:31:41;;;;;;;6.32;1.60;;;;;;;22.53;76.90;101823.09;5011770;28;20096;-29
2022/05/22 07:34:31;;;;;;;6.70;1.98;;;;;;;22.86;72.93;101835.16;5008560;28;20140;-28
2022/05/22 07:37:19;;;;;;;5.18;1.80;;;;;;;23.14;72.25;101820.97;5010133;28;20462;-35
2022/05/22 07:39:55;;;;;;;5.90;1.88;;;;;;;23.29;68.80;101830.75;5010722;28;20712;-28
2022/05/22 07:42:36;;;;;;;8.57;1.50;;;;;;;23.17;68.85;101830.81;5008776;28;20079;-29
2022/05/22 07:45:24;;;;;;;6.70;1.83;;;;;;;23.00;66.97;101826.22;5001796;28;20517;-29
2022/05/22 07:48:21;;;;;;;8.10;2.42;;;;;;;22.53;65.85;101835.31;4998891;28;20144;-33
2022/05/22 07:51:12;;;;;;;7.88;1.83;;;;;;;22.08;65.99;101834.59;5004216;28;20084;-29
2022/05/22 07:53:57;;;;;;;8.18;1.77;;;;;;;21.80;67.34;101831.53;5010016;28;20492;-30
2022/05/22 07:56:57;;;;;;;5.97;1.55;;;;;;;21.58;65.58;101827.13;5002031;28;20585;-33
2022/05/22 07:59:52;;;;;;;3.92;1.52;;;;;;;21.41;66.73;101842.31;5001842;28;20065;-28
2022/05/22 08:02:41;;;;;;;7.78;1.65;;;;;;;21.51;65.69;101841.88;5012047;28;20057;-29
2022/05/22 08:05:11;;;;;;;5.68;1.98;;;;;;;21.43;63.65;101836.28;5010579;28;20141;-32
2022/05/22 08:07:45;;;;;;;5.38;1.70;;;;;;;21.30;64.48;101829.72;5009821;28;20054;-29
2022/05/22 08:10:18;;;;;;;8.45;1.92;;;;;;;21.54;63.45;101837.53;5010754;28;20482;-29
2022/05/22 08:12:51;;;;;;;7.60;1.70;;;;;;;21.70;63.19;101829.16;5010574;28;20100;-34
2022/05/22 08:15:30;;;;;;;5.47;2.10;;;;;;;21.85;62.19;101817.94;5010023;28;20140;-31
2022/05/22 08:18:18;;;;;;;7.15;2.08;;;;;;;22.13;63.25;101809.59;5011034;28;20111;-29
2022/05/22 08:20:49;;;;;;;5.85;1.80;;;;;;;22.61;60.37;101813.59;5009323;28;20159;-32
2022/05/22 08:23:21;;;;;;;5.18;1.60;;;;;;;23.01;60.93;101808.78;5009508;28;20092;-30
2022/05/22 08:26:05;;;;;;;4.80;1.58;;;;;;;23.34;59.44;101800.00;5010134;28;20053;-31
2022/05/22 08:28:36;;;;;;;5.57;1.67;;;;;;;23.54;57.76;101792.44;5009788;28;20418;-29
2022/05/22 08:31:07;;;;;;;5.28;1.67;;;;;;;23.59;55.31;101780.75;5009857;28;20096;-29
2022/05/22 08:33:37;;;;;;;5.07;1.90;;;;;;;23.58;54.96;101790.50;5011578;28;20511;-33
2022/05/22 08:36:09;;;;;;;6.22;2.15;;;;;;;23.82;54.38;101795.22;5010853;28;20041;-35
2022/05/22 08:38:40;;;;;;;6.20;1.60;;;;;;;23.59;53.97;101786.44;5011420;28;20466;-33
2022/05/22 08:41:11;;;;;;;6.07;1.70;;;;;;;23.40;54.00;101794.84;5011363;28;20042;-34
2022/05/22 08:43:46;;;;;;;6.43;1.80;;;;;;;23.30;54.56;101779.13;5010667;28;20145;-29
2022/05/22 08:46:32;;;;;;;5.35;1.50;;;;;;;23.24;53.67;101780.56;5011161;28;20042;-31
2022/05/22 08:49:07;;;;;;;6.15;1.50;;;;;;;22.89;54.32;101771.81;5011332;28;20054;-32
2022/05/22 08:51:41;;;;;;;8.07;1.77;;;;;;;22.97;54.72;101764.31;5010709;28;20073;-29
2022/05/22 08:54:14;;;;;;;6.07;1.25;;;;;;;23.15;53.04;101773.38;5010516;28;20401;-31
2022/05/22 08:59:32;;;;;;;5.65;1.33;;;;;;;23.13;53.31;101762.34;5011304;28;20048;-31
2022/05/22 09:02:11;;;;;;;6.20;1.58;;;;;;;23.41;54.11;101756.63;5011224;28;20053;-30
2022/05/22 09:04:43;;;;;;;5.38;1.30;;;;;;;23.55;53.67;101753.38;5010462;28;20037;-37
2022/05/22 09:07:18;;;;;;;;;;;;;;;23.81;50.30;101764.22;5011648;28;20049;-31
2022/05/22 09:09:52;;;;;;;4.28;1.00;;;;;;;24.04;52.70;101756.69;5011041;28;20279;-29
2022/05/22 09:12:33;;;;;;;6.25;1.30;;;;;;;24.24;53.31;101749.88;5010662;28;20064;-29
2022/05/22 09:15:07;;;;;;;3.95;1.05;;;;;;;24.96;49.88;101740.94;5010919;28;20038;-30
2022/05/22 09:17:44;;;;;;;5.60;1.35;;;;;;;25.29;48.10;101744.03;5010139;28;20103;-30
2022/05/22 09:20:18;;;;;;;5.97;1.75;;;;;;;25.05;48.43;101748.03;5010983;28;20056;-30
2022/05/22 09:23:04;;;;;;;5.47;1.50;;;;;;;24.95;48.14;101745.81;5010851;28;20042;-31
2022/05/22 09:25:43;;;;;;;5.75;1.55;;;;;;;24.80;48.80;101749.50;5009522;28;20081;-38
2022/05/22 09:28:20;;;;;;;6.05;1.15;;;;;;;24.79;49.56;101742.13;5010913;28;20042;-29
2022/05/22 09:30:58;;;;;;;4.47;1.15;;;;;;;24.69;47.82;101739.91;5007345;28;20510;-29
2022/05/22 09:33:36;;;;;;;5.93;1.70;;;;;;;24.61;47.91;101726.66;5006653;28;20056;-29
2022/05/22 09:36:16;;;;;;;4.30;1.33;;;;;;;24.76;48.62;101722.94;5008142;28;20057;-29
2022/05/22 09:39:08;;;;;;;7.78;2.40;;;;;;;25.02;48.86;101723.09;5007981;28;20049;-29
2022/05/22 09:41:51;;;;;;;4.88;1.20;;;;;;;25.29;47.50;101724.03;5010773;28;20050;-31
2022/05/22 09:45:03;;;;;;;4.75;1.63;;;;;;;25.31;47.51;101717.94;5001658;28;20042;-29
2022/05/22 09:47:46;;;;;;;5.03;1.52;;;;;;;25.15;47.81;101717.22;5009720;28;20056;-29
2022/05/22 09:50:43;;;;;;;4.00;1.55;;;;;;;25.09;49.57;101724.44;5010759;28;20042;-36
2022/05/22 09:53:22;;;;;;;5.50;1.63;;;;;;;25.30;46.18;101716.28;5009652;28;20487;-32
2022/05/22 09:55:51;;;;;;;4.60;1.40;;;;;;;25.12;48.11;101703.69;5010453;28;20137;-28
2022/05/22 09:58:36;;;;;;;5.35;1.58;;;;;;;25.03;46.50;101695.34;5010386;28;20054;-31
2022/05/22 10:01:13;;;;;;;4.78;1.60;;;;;;;24.95;49.35;101696.44;5005763;28;20057;-33
2022/05/22 10:03:49;;;;;;;6.13;1.98;;;;;;;25.11;47.86;101697.16;5006503;28;20050;-32
2022/05/22 10:06:28;;;;;;;3.97;1.23;;;;;;;25.11;49.77;101693.47;5007171;28;20418;-29
2022/05/22 10:09:04;;;;;;;6.00;2.25;;;;;;;25.34;45.42;101698.03;5010019;28;20069;-36
2022/05/22 10:11:40;;;;;;;6.38;2.30;;;;;;;25.04;47.24;101692.13;5011010;28;20496;-29
2022/05/22 10:14:24;;;;;;;7.32;1.90;;;;;;;25.22;48.54;101689.59;5010192;28;20054;-29
2022/05/22 10:17:06;;;;;;;6.45;1.92;;;;;;;25.64;47.57;101692.44;5014177;28;20050;-35
2022/05/22 10:19:40;;;;;;;;;;;;;;;25.81;42.11;101693.13;5014799;28;20057;-29
2022/05/22 10:22:17;;;;;;;6.85;1.98;;;;;;;25.74;45.26;101697.53;5012147;28;19941;-31
2022/05/22 10:25:01;;;;;;;4.70;1.90;;;;;;;25.28;45.98;101696.66;5013992;28;20115;-32
2022/05/22 10:27:48;;;;;;;5.97;2.10;;;;;;;25.03;47.32;101690.47;5013985;28;20280;-29
2022/05/22 10:30:19;;;;;;;6.38;1.90;;;;;;;25.08;48.29;101689.34;5014000;28;20057;-30
2022/05/22 10:32:53;;;;;;;6.40;1.95;;;;;;;25.49;48.90;101693.38;5013643;28;20053;-32
2022/05/22 10:35:27;;;;;;;4.80;1.70;;;;;;;26.11;48.45;101696.06;5012352;28;20045;-29
2022/05/22 10:38:03;;;;;;;4.70;1.73;;;;;;;26.36;47.15;101685.84;5013350;28;20046;-30
2022/05/22 10:42:44;;;;;;;4.60;1.30;;;;;;;26.53;46.38;101690.19;5013353;28;20072;-29
2022/05/22 10:43:18;;;;;;;6.85;2.08;;;;;;;26.62;45.38;101684.97;5010272;28;20399;-30
2022/05/22 10:45:46;;;;;;;7.15;2.03;;;;;;;26.36;46.22;101680.97;5013432;28;20510;-35
2022/05/22 10:48:19;;;;;;;8.98;2.08;;;;;;;26.36;45.79;101678.09;5013498;28;20049;-29
2022/05/22 10:50:53;;;;;;;6.57;2.00;;;;;;;26.61;44.93;101684.13;5012761;28;20041;-29
2022/05/22 10:53:31;;;;;;;5.78;1.90;;;;;;;26.72;44.57;101679.38;5013360;28;20053;-29
2022/05/22 10:56:05;;;;;;;5.03;1.70;;;;;;;26.56;45.30;101669.38;5011616;28;20156;-30
2022/05/22 10:58:36;;;;;;;4.60;1.75;;;;;;;26.92;45.60;101674.31;5012254;28;20053;-31
2022/05/22 11:01:06;;;;;;;5.72;2.03;;;;;;;27.26;44.74;101669.38;5013008;28;20038;-29
2022/05/22 11:03:35;;;;;;;5.47;1.90;;;;;;;27.22;43.72;101673.41;5012592;28;20053;-29
2022/05/22 11:06:17;;;;;;;5.20;1.75;;;;;;;26.71;43.27;101671.19;5013162;28;20046;-34
2022/05/22 11:08:51;;;;;;;3.80;1.58;;;;;;;26.46;44.62;101658.59;5013213;28;20077;-29
2022/05/22 11:11:21;;;;;;;5.65;1.95;;;;;;;26.51;45.37;101661.09;5012252;28;20056;-35
2022/05/22 11:13:48;;;;;;;6.82;2.30;;;;;;;26.29;43.22;101654.22;5012924;28;20068;-28
2022/05/22 11:16:21;;;;;;;4.03;1.50;;;;;;;26.02;45.26;101648.53;5012825;28;20054;-30
2022/05/22 11:18:59;;;;;;;4.63;1.40;;;;;;;26.08;45.22;101649.03;5011543;28;20458;-29
2022/05/22 11:21:34;;;;;;;4.45;1.40;;;;;;;26.11;43.65;101645.41;5013034;28;20060;-32
2022/05/22 11:24:26;;;;;;;5.13;1.60;;;;;;;26.33;42.60;101644.53;5012364;28;20057;-30
2022/05/22 11:27:06;;;;;;;4.28;1.45;;;;;;;26.56;42.92;101640.72;5012943;28;20046;-35
2022/05/22 11:30:02;;;;;;;3.53;1.30;;;;;;;26.78;43.20;101637.72;5012770;28;20048;-36
2022/05/22 11:32:43;;;;;;;5.30;1.50;;;;;;;26.95;42.71;101636.31;5012069;28;20050;-36
2022/05/22 11:35:24;;;;;;;4.05;1.35;;;;;;;27.02;42.04;101633.50;5011344;28;20042;-29
2022/05/22 11:38:07;;;;;;;7.15;2.10;;;;;;;26.86;42.18;101632.91;5012590;28;20042;-29
2022/05/22 11:40:46;;;;;;;5.35;1.65;;;;;;;26.98;42.58;101624.06;5002654;28;20056;-33
2022/05/22 11:43:44;;;;;;;4.17;1.20;;;;;;;27.22;41.00;101621.84;5002689;28;20081;-29
2022/05/22 11:46:16;;;;;;;4.95;1.55;;;;;;;27.37;42.50;101630.19;5004674;28;20034;-29
2022/05/22 11:49:00;;;;;;;5.03;1.52;;;;;;;27.36;42.79;101616.25;5012413;28;20081;-35
2022/05/22 11:51:56;;;;;;;4.57;1.80;;;;;;;27.45;42.25;101611.00;5012543;28;20062;-33
2022/05/22 11:54:39;;;;;;;3.75;1.40;;;;;;;27.63;41.69;101597.66;5009027;28;20204;-31
2022/05/22 11:57:26;;;;;;;5.45;1.55;;;;;;;27.82;40.55;101598.59;5012016;28;20563;-35
2022/05/22 12:00:11;;;;;;;4.78;1.30;;;;;;;27.99;39.87;101598.72;5011602;28;20050;-30
2022/05/22 12:03:02;;;;;;;3.65;1.55;;;;;;;28.02;39.43;101603.66;5008382;28;20053;-30
2022/05/22 12:05:39;;;;;;;;;;;;;;;27.94;38.80;101592.53;5010494;28;20077;-30
2022/05/22 12:08:21;;;;;;;4.40;1.67;;;;;;;28.09;40.18;101591.41;5011352;28;19992;-32
2022/05/22 12:10:58;;;;;;;5.75;1.50;;;;;;;28.33;39.82;101596.47;5012008;28;20064;-35
2022/05/22 12:13:33;;;;;;;4.15;1.30;;;;;;;28.43;39.87;101584.19;5011209;28;20052;-30